Time;durP1;ratioP1;P1;durP2;ratioP2;P2;SDS_P1;SDS_P2;PMS_P1;PMS_P2;Temp;Humidity;BMP_temperature;BMP_pressure;BME280_temperature;BME280_humidity;BME280_pressure;Samples;Min_cycle;Max_cycle;Signal;HPM_P1;HPM_P2
2023/06/02 00:00:03;;;;;;;18.33;3.15;;;;;;;19.56;44.12;101312.00;5032236;27;97594;-62
2023/06/02 00:02:33;;;;;;;18.42;2.50;;;;;;;19.73;43.64;101317.16;5033529;27;97529;-63
2023/06/02 00:05:01;;;;;;;16.90;3.28;;;;;;;19.64;43.57;101318.59;5030357;27;101130;-63
2023/06/02 00:07:27;;;;;;;21.02;3.95;;;;;;;19.32;44.39;101309.88;5033559;27;98907;-62
2023/06/02 00:09:56;;;;;;;15.18;2.83;;;;;;;19.01;45.32;101316.28;5035027;27;97034;-62
2023/06/02 00:12:22;;;;;;;13.60;2.92;;;;;;;18.82;45.75;101317.50;5024558;27;97222;-62
2023/06/02 00:14:49;;;;;;;22.17;2.97;;;;;;;18.79;45.94;101323.03;5040245;27;98951;-62
2023/06/02 00:17:18;;;;;;;14.65;3.60;;;;;;;19.04;45.38;101325.94;5036354;27;98845;-62
2023/06/02 00:19:45;;;;;;;22.23;3.05;;;;;;;18.59;46.39;101316.22;5029675;27;96808;-63
2023/06/02 00:22:13;;;;;;;17.52;2.95;;;;;;;18.37;47.18;101321.97;5022585;27;100975;-62
2023/06/02 00:24:40;;;;;;;15.32;2.83;;;;;;;18.51;46.94;101321.97;5036222;27;99012;-62
2023/06/02 00:27:08;;;;;;;14.88;3.38;;;;;;;18.46;47.10;101321.41;5033351;27;99051;-62
2023/06/02 00:29:34;;;;;;;16.38;2.70;;;;;;;18.26;47.42;101322.56;5032905;27;99081;-61
2023/06/02 00:32:00;;;;;;;21.02;3.83;;;;;;;18.11;47.66;101318.13;5032883;27;96915;-62
2023/06/02 00:34:27;;;;;;;12.10;2.78;;;;;;;18.20;47.64;101320.25;5031971;27;98895;-62
2023/06/02 00:36:53;;;;;;;17.38;2.80;;;;;;;18.04;47.96;101313.22;5031979;27;99396;-62
2023/06/02 00:39:20;;;;;;;13.50;2.67;;;;;;;18.10;47.98;101307.50;5037494;27;96795;-61
2023/06/02 00:41:47;;;;;;;17.80;3.20;;;;;;;18.17;47.81;101306.22;5036652;27;98468;-61
2023/06/02 00:44:15;;;;;;;14.18;3.22;;;;;;;18.13;47.83;101312.66;5034615;27;98954;-61
2023/06/02 00:46:41;;;;;;;14.05;3.13;;;;;;;18.15;47.66;101308.97;5030087;27;98915;-61
2023/06/02 00:49:08;;;;;;;20.52;3.65;;;;;;;18.20;47.43;101311.34;5032494;27;96808;-61
2023/06/02 00:51:35;;;;;;;15.18;3.00;;;;;;;18.35;47.06;101314.97;5034511;27;98478;-62
2023/06/02 00:54:01;;;;;;;12.90;3.00;;;;;;;18.21;47.49;101319.31;5029167;27;98144;-61
2023/06/02 00:56:29;;;;;;;16.67;3.53;;;;;;;18.15;47.38;101317.00;5038391;27;98885;-61
2023/06/02 00:58:55;;;;;;;13.55;3.28;;;;;;;17.63;48.52;101324.44;5033522;27;97597;-61
2023/06/02 01:01:23;;;;;;;23.40;4.13;;;;;;;17.85;48.15;101321.44;5033782;27;96955;-62
2023/06/02 01:03:51;;;;;;;18.60;4.00;;;;;;;17.70;48.63;101324.94;5032507;27;99254;-61
2023/06/02 01:06:22;;;;;;;18.02;3.55;;;;;;;17.70;48.72;101323.16;5030115;27;99423;-63
2023/06/02 01:08:50;;;;;;;16.27;3.28;;;;;;;17.86;48.25;101321.31;5036561;27;96744;-61
2023/06/02 01:11:17;;;;;;;20.70;3.22;;;;;;;17.59;48.86;101330.00;5033402;27;97027;-61
2023/06/02 01:13:43;;;;;;;16.50;3.65;;;;;;;17.69;48.69;101332.09;5030243;27;99154;-62
2023/06/02 01:16:12;;;;;;;18.80;3.30;;;;;;;17.53;48.97;101325.84;5033963;27;99375;-62
2023/06/02 01:18:45;;;;;;;20.90;3.25;;;;;;;17.38;49.40;101330.22;5031501;27;97814;-62
2023/06/02 01:21:12;;;;;;;27.98;3.22;;;;;;;17.50;49.04;101326.03;5030336;27;98829;-61
2023/06/02 01:23:46;;;;;;;21.38;3.38;;;;;;;17.58;48.68;101334.50;5034894;27;98707;-61
2023/06/02 01:26:13;;;;;;;20.00;3.10;;;;;;;17.96;47.68;101334.19;5032049;27;97708;-61
2023/06/02 01:28:39;;;;;;;23.60;3.92;;;;;;;17.65;48.28;101332.38;5028379;27;97102;-61
2023/06/02 01:31:18;;;;;;;19.40;3.45;;;;;;;17.75;48.19;101334.44;5022449;27;99481;-63
2023/06/02 01:33:54;;;;;;;18.25;3.42;;;;;;;17.56;48.42;101341.72;5028963;27;100054;-61
2023/06/02 01:36:22;;;;;;;;;;;;;;;17.38;49.06;101340.91;5034889;27;98719;-62
2023/06/02 01:38:52;;;;;;;19.55;3.47;;;;;;;17.37;49.02;101349.88;5037235;27;96859;-61
2023/06/02 01:41:19;;;;;;;15.02;3.10;;;;;;;17.37;48.94;101346.34;5025907;27;97444;-61
2023/06/02 01:43:48;;;;;;;17.92;3.00;;;;;;;17.12;49.52;101345.00;5030004;27;97531;-62
2023/06/02 01:46:15;;;;;;;21.98;3.05;;;;;;;17.24;49.22;101348.81;5029709;27;98944;-62
2023/06/02 01:48:41;;;;;;;20.77;3.58;;;;;;;17.14;49.51;101352.91;5027263;27;96941;-62
2023/06/02 01:51:08;;;;;;;14.82;2.92;;;;;;;17.07;49.69;101352.34;5028449;27;96809;-62
2023/06/02 01:53:34;;;;;;;18.00;3.80;;;;;;;16.96;49.92;101348.53;5029471;27;99039;-62
2023/06/02 01:56:02;;;;;;;22.33;4.00;;;;;;;17.00;49.68;101344.78;5032381;27;98808;-62
2023/06/02 01:58:29;;;;;;;21.20;2.80;;;;;;;17.47;48.61;101355.56;5024863;27;96905;-62
2023/06/02 02:00:57;;;;;;;16.65;3.53;;;;;;;17.12;49.43;101345.00;5028025;27;98586;-61
2023/06/02 02:03:23;;;;;;;24.38;4.43;;;;;;;17.06;49.43;101349.78;5031795;27;99267;-62
2023/06/02 02:05:49;;;;;;;18.30;3.25;;;;;;;17.20;49.14;101346.41;5026725;27;101199;-61
2023/06/02 02:08:16;;;;;;;16.00;3.15;;;;;;;17.17;49.00;101342.06;5025162;27;96797;-61
2023/06/02 02:10:42;;;;;;;28.17;3.25;;;;;;;17.16;48.99;101351.03;5025736;27;99078;-62
2023/06/02 02:13:10;;;;;;;28.38;4.20;;;;;;;17.07;49.03;101344.34;5027638;27;98924;-61
2023/06/02 02:15:36;;;;;;;28.40;4.15;;;;;;;17.04;49.12;101349.88;5031785;27;97688;-62
2023/06/02 02:18:03;;;;;;;25.40;4.18;;;;;;;17.25;48.59;101349.69;5029344;27;97184;-62
2023/06/02 02:20:29;;;;;;;21.17;3.60;;;;;;;17.44;48.07;101358.41;5036559;27;96750;-62
2023/06/02 02:22:56;;;;;;;20.33;3.45;;;;;;;17.53;47.67;101355.22;5027544;27;98871;-62
2023/06/02 02:25:22;;;;;;;22.33;3.30;;;;;;;16.96;49.25;101359.22;5034156;27;98910;-62
2023/06/02 02:27:49;;;;;;;17.55;3.53;;;;;;;17.28;48.40;101361.03;5027782;27;96974;-61
2023/06/02 02:30:17;;;;;;;21.17;3.33;;;;;;;17.00;48.81;101363.47;5032753;27;98871;-61
2023/06/02 02:32:45;;;;;;;18.63;3.20;;;;;;;17.38;48.01;101364.09;5031207;27;99796;-61
2023/06/02 02:35:11;;;;;;;29.70;3.42;;;;;;;17.17;48.39;101368.78;5030916;27;98873;-62
2023/06/02 02:37:38;;;;;;;22.48;3.92;;;;;;;17.12;48.44;101360.16;5032560;27;100945;-62
2023/06/02 02:40:06;;;;;;;17.52;3.72;;;;;;;17.37;47.95;101376.59;5029776;27;97796;-62
2023/06/02 02:42:33;;;;;;;29.10;3.97;;;;;;;17.47;47.40;101371.59;5028977;27;99287;-63
2023/06/02 02:45:00;;;;;;;23.45;3.60;;;;;;;17.22;47.88;101366.72;5034829;27;98398;-62
2023/06/02 02:47:27;;;;;;;18.98;3.45;;;;;;;16.97;48.34;101367.16;5030952;27;97029;-62
2023/06/02 02:49:54;;;;;;;27.13;4.38;;;;;;;17.28;47.81;101370.84;5039082;27;96951;-63
2023/06/02 02:52:21;;;;;;;23.13;3.50;;;;;;;17.44;47.50;101371.78;5030514;27;98683;-63
2023/06/02 02:54:48;;;;;;;21.42;3.33;;;;;;;17.46;47.01;101375.22;5041469;27;98819;-63
2023/06/02 02:57:17;;;;;;;20.63;3.55;;;;;;;17.57;47.05;101371.97;5036180;27;96786;-63
2023/06/02 02:59:43;;;;;;;15.60;3.28;;;;;;;17.36;47.20;101382.88;5034766;27;97173;-63
2023/06/02 03:02:10;;;;;;;19.95;3.50;;;;;;;17.12;48.04;101382.38;5032099;27;98899;-63
2023/06/02 03:04:41;;;;;;;19.05;3.45;;;;;;;17.36;47.33;101385.53;5032221;27;98141;-63
2023/06/02 03:07:07;;;;;;;22.52;3.65;;;;;;;16.87;48.36;101389.06;5035205;27;97811;-61
2023/06/02 03:09:34;;;;;;;31.08;4.70;;;;;;;16.93;48.39;101394.97;5037590;27;96846;-62
2023/06/02 03:12:00;;;;;;;20.48;3.53;;;;;;;16.96;48.34;101392.13;5039347;27;100864;-62
2023/06/02 03:14:28;;;;;;;27.73;3.08;;;;;;;16.55;49.20;101395.97;5039614;27;98583;-62
2023/06/02 03:16:56;;;;;;;24.17;3.80;;;;;;;16.84;48.64;101398.09;5032341;27;96878;-62
2023/06/02 03:19:24;;;;;;;20.10;3.05;;;;;;;16.65;49.16;101395.50;5035216;27;96910;-62
2023/06/02 03:21:52;;;;;;;21.77;3.50;;;;;;;16.73;48.66;101393.31;5030912;27;99298;-61
2023/06/02 03:24:20;;;;;;;18.67;3.88;;;;;;;16.61;49.19;101396.56;5036441;27;97676;-62
2023/06/02 03:26:46;;;;;;;23.08;3.75;;;;;;;16.63;49.00;101393.84;5030263;27;96866;-62
2023/06/02 03:29:14;;;;;;;22.63;4.05;;;;;;;16.37;49.71;101405.75;5030649;27;96925;-62
2023/06/02 03:31:41;;;;;;;24.63;3.67;;;;;;;16.49;49.58;101394.47;5032167;27;99062;-62
2023/06/02 03:34:08;;;;;;;14.80;3.40;;;;;;;16.92;48.50;101406.56;5036820;27;97481;-62
2023/06/02 03:36:36;;;;;;;25.10;3.70;;;;;;;16.85;48.23;101405.16;5032716;27;97931;-62
2023/06/02 03:39:05;;;;;;;23.95;4.38;;;;;;;16.55;49.46;101406.66;5045808;27;96786;-62
2023/06/02 03:41:31;;;;;;;25.73;4.00;;;;;;;16.77;48.76;101401.16;5031458;27;99646;-62
2023/06/02 03:43:58;;;;;;;22.75;3.90;;;;;;;16.68;48.82;101400.66;5036498;27;97643;-62
2023/06/02 03:46:24;;;;;;;33.42;3.85;;;;;;;17.00;48.09;101409.69;5026706;27;97140;-67
2023/06/02 03:48:50;;;;;;;24.27;5.25;;;;;;;17.16;47.62;101401.75;5032329;27;96979;-62
2023/06/02 03:51:17;;;;;;;18.23;4.13;;;;;;;17.36;46.96;101406.03;5035023;27;98167;-62
2023/06/02 03:53:43;;;;;;;18.80;3.63;;;;;;;16.95;47.78;101411.75;5033007;27;99085;-62
2023/06/02 03:56:11;;;;;;;22.48;4.00;;;;;;;17.00;47.84;101417.69;5040401;27;96909;-62
2023/06/02 03:58:38;;;;;;;25.70;3.92;;;;;;;17.36;46.72;101416.72;5031910;27;96996;-62
2023/06/02 04:01:04;;;;;;;18.30;3.78;;;;;;;17.11;47.50;101423.38;5038238;27;99240;-63
2023/06/02 04:03:32;;;;;;;19.80;3.47;;;;;;;16.88;48.33;101425.47;5030849;27;98792;-61
2023/06/02 04:05:59;;;;;;;20.88;3.45;;;;;;;16.74;48.63;101428.84;5031195;27;97956;-62
2023/06/02 04:08:25;;;;;;;21.00;3.85;;;;;;;16.88;48.28;101426.34;5031685;27;96889;-62
2023/06/02 04:10:52;;;;;;;21.55;3.85;;;;;;;16.77;48.62;101427.84;5029154;27;99600;-62
2023/06/02 04:13:19;;;;;;;24.88;3.70;;;;;;;17.29;47.41;101432.22;5036029;27;99402;-63
2023/06/02 04:15:46;;;;;;;19.63;3.47;;;;;;;17.32;47.22;101431.22;5032934;27;96817;-62
2023/06/02 04:18:13;;;;;;;22.33;3.40;;;;;;;17.32;46.95;101433.88;5033204;27;101317;-64
2023/06/02 04:20:39;;;;;;;22.63;4.45;;;;;;;17.83;46.11;101433.78;5030533;27;98984;-62
2023/06/02 04:23:06;;;;;;;19.00;3.90;;;;;;;17.98;45.75;101439.25;5029479;27;99099;-62
2023/06/02 04:25:32;;;;;;;28.80;4.05;;;;;;;17.91;45.23;101446.75;5037311;27;96974;-62
2023/06/02 04:27:59;;;;;;;20.65;3.20;;;;;;;17.84;45.41;101440.00;5034374;27;96908;-61
2023/06/02 04:30:27;;;;;;;23.30;4.35;;;;;;;17.41;46.79;101446.72;5023170;27;99521;-61
2023/06/02 04:32:53;;;;;;;21.67;3.63;;;;;;;17.55;46.38;101446.88;5030094;27;99426;-62
2023/06/02 04:35:21;;;;;;;22.55;3.80;;;;;;;18.06;45.49;101448.53;5030230;27;98006;-62
2023/06/02 04:37:47;;;;;;;21.90;4.40;;;;;;;18.31;44.78;101450.72;5034559;27;96968;-61
2023/06/02 04:40:14;;;;;;;15.80;3.63;;;;;;;18.37;44.33;101444.16;5031413;27;98953;-62
2023/06/02 04:42:40;;;;;;;22.98;3.90;;;;;;;18.37;44.52;101447.72;5027934;27;99071;-63
2023/06/02 04:45:11;;;;;;;15.82;3.40;;;;;;;18.33;44.40;101449.69;5028707;27;96790;-62
2023/06/02 04:47:38;;;;;;;23.08;4.00;;;;;;;17.99;45.22;101446.28;5037629;27;96797;-62
2023/06/02 04:50:06;;;;;;;28.05;4.07;;;;;;;17.80;45.92;101454.47;5031605;27;98930;-62
2023/06/02 04:52:34;;;;;;;17.70;3.88;;;;;;;17.77;45.87;101457.31;5028602;27;99173;-62
2023/06/02 04:55:00;;;;;;;21.83;4.03;;;;;;;17.45;46.64;101454.53;5024513;27;96947;-63
2023/06/02 04:57:26;;;;;;;22.98;4.88;;;;;;;17.58;46.61;101457.41;5032284;27;96903;-61
2023/06/02 04:59:53;;;;;;;19.58;3.70;;;;;;;17.58;46.83;101465.44;5027384;27;101073;-61
2023/06/02 05:02:19;;;;;;;16.92;3.28;;;;;;;18.01;45.70;101457.78;5028420;27;99227;-61
2023/06/02 05:04:47;;;;;;;22.23;4.22;;;;;;;18.09;45.35;101460.91;5027265;27;96833;-61
2023/06/02 05:07:13;;;;;;;19.45;4.90;;;;;;;18.35;44.93;101464.78;5030934;27;96886;-62
2023/06/02 05:09:40;;;;;;;22.70;4.18;;;;;;;18.19;44.97;101467.44;5030066;27;99578;-62
2023/06/02 05:12:08;;;;;;;19.05;4.25;;;;;;;18.14;45.27;101467.72;5030881;27;98780;-61
2023/06/02 05:14:36;;;;;;;26.50;3.90;;;;;;;18.15;45.14;101457.88;5026777;27;96789;-62
2023/06/02 05:17:03;;;;;;;29.52;5.10;;;;;;;18.39;44.79;101467.19;5026782;27;96932;-62
2023/06/02 05:19:33;;;;;;;22.77;4.30;;;;;;;18.47;44.64;101472.97;5027583;27;99736;-63
2023/06/02 05:22:02;;;;;;;20.23;4.18;;;;;;;18.04;45.79;101468.31;5022026;27;99397;-62
2023/06/02 05:24:28;;;;;;;25.73;4.40;;;;;;;17.99;46.16;101465.88;5023503;27;97087;-62
2023/06/02 05:26:55;;;;;;;24.25;4.95;;;;;;;18.18;45.67;101471.09;5029648;27;96874;-62
2023/06/02 05:29:21;;;;;;;23.75;5.00;;;;;;;18.61;44.67;101478.44;5032926;27;99388;-62
2023/06/02 05:31:48;;;;;;;32.33;5.20;;;;;;;18.53;44.71;101467.28;5025502;27;99020;-62
2023/06/02 05:34:15;;;;;;;22.13;4.78;;;;;;;18.65;44.39;101479.97;5030036;27;96893;-62
2023/06/02 05:36:41;;;;;;;25.38;4.80;;;;;;;18.91;44.00;101474.94;5028777;27;97468;-63
2023/06/02 05:39:10;;;;;;;21.35;4.45;;;;;;;19.22;43.44;101474.00;5020554;27;99536;-63
2023/06/02 05:41:36;;;;;;;21.88;4.35;;;;;;;19.03;43.73;101485.78;5015707;27;99217;-64
2023/06/02 05:44:03;;;;;;;23.10;4.43;;;;;;;19.13;43.70;101486.13;5020153;27;96810;-62
2023/06/02 05:46:30;;;;;;;28.20;7.35;;;;;;;19.33;43.03;101495.63;5028164;27;97067;-63
2023/06/02 05:48:57;;;;;;;22.60;5.63;;;;;;;18.79;44.25;101489.91;5025701;27;99293;-62
2023/06/02 05:51:23;;;;;;;30.52;6.20;;;;;;;18.89;44.35;101496.47;5029940;27;98857;-61
2023/06/02 05:53:50;;;;;;;29.83;6.30;;;;;;;19.16;43.84;101502.03;5026661;27;97930;-62
2023/06/02 05:56:18;;;;;;;29.95;6.65;;;;;;;19.24;43.67;101497.03;5033726;27;96832;-64
2023/06/02 05:58:46;;;;;;;36.33;7.65;;;;;;;19.29;43.77;101499.47;5028040;27;99384;-62
2023/06/02 06:01:13;;;;;;;31.75;7.43;;;;;;;19.07;44.25;101498.06;5026682;27;99328;-63
2023/06/02 06:03:39;;;;;;;33.63;9.02;;;;;;;19.36;43.62;101498.97;5028475;27;97143;-63
2023/06/02 06:06:06;;;;;;;29.42;7.30;;;;;;;19.46;43.50;101505.56;5028195;27;96848;-63
2023/06/02 06:08:32;;;;;;;24.73;8.30;;;;;;;19.64;43.20;101516.97;5036395;27;101722;-62
2023/06/02 06:10:59;;;;;;;25.08;6.80;;;;;;;19.59;43.05;101515.53;5030099;27;98773;-61
2023/06/02 06:13:26;;;;;;;23.52;5.25;;;;;;;19.81;42.40;101514.13;5023527;27;98948;-62
2023/06/02 06:15:53;;;;;;;25.95;5.90;;;;;;;19.61;42.87;101521.69;5023792;27;97793;-62
2023/06/02 06:18:19;;;;;;;33.47;6.13;;;;;;;19.46;43.63;101521.66;5027081;27;100231;-62
2023/06/02 06:20:46;;;;;;;21.25;5.45;;;;;;;19.42;43.64;101521.91;5028011;27;99034;-62
2023/06/02 06:23:13;;;;;;;24.25;5.53;;;;;;;18.67;45.59;101522.72;5031493;27;97064;-63
2023/06/02 06:25:39;;;;;;;25.63;4.95;;;;;;;18.72;45.35;101526.00;5028374;27;96994;-62
2023/06/02 06:28:06;;;;;;;24.20;5.25;;;;;;;18.83;45.14;101526.28;5031838;27;98943;-63
2023/06/02 06:30:33;;;;;;;23.90;5.28;;;;;;;18.73;45.74;101526.88;5027274;27;99055;-62
2023/06/02 06:33:00;;;;;;;22.85;5.00;;;;;;;18.54;46.24;101517.19;5028122;27;97375;-64
2023/06/02 06:35:26;;;;;;;20.05;4.90;;;;;;;18.32;47.07;101516.63;5029823;27;96878;-67
2023/06/02 06:37:53;;;;;;;33.58;5.00;;;;;;;18.23;47.44;101519.84;5025809;27;99245;-62
2023/06/02 06:40:19;;;;;;;19.73;4.15;;;;;;;18.97;45.88;101523.63;5022412;27;99195;-62
2023/06/02 06:42:46;;;;;;;18.95;4.25;;;;;;;18.54;46.78;101524.34;5027178;27;96741;-62
2023/06/02 06:45:12;;;;;;;31.80;6.55;;;;;;;19.42;44.83;101528.13;5029574;27;97469;-64
2023/06/02 06:47:40;;;;;;;29.45;7.03;;;;;;;19.70;44.35;101527.31;5026275;27;99188;-62
2023/06/02 06:50:07;;;;;;;32.20;7.43;;;;;;;19.73;43.91;101532.50;5030522;27;99192;-62
2023/06/02 06:52:34;;;;;;;24.50;5.18;;;;;;;19.96;43.70;101538.25;5019261;27;96825;-63
2023/06/02 06:55:00;;;;;;;23.98;6.55;;;;;;;20.01;43.42;101541.53;5032210;27;97484;-63
2023/06/02 06:57:27;;;;;;;27.42;5.32;;;;;;;19.47;44.74;101543.94;5034811;27;99403;-63
2023/06/02 06:59:54;;;;;;;25.65;5.78;;;;;;;19.83;43.71;101549.75;5035262;27;98804;-62
2023/06/02 07:02:20;;;;;;;27.02;5.22;;;;;;;19.60;44.84;101547.63;5029987;27;97036;-63
2023/06/02 07:04:48;;;;;;;21.85;4.88;;;;;;;18.94;46.22;101547.06;5030932;27;96657;-63
2023/06/02 07:07:15;;;;;;;25.08;5.30;;;;;;;19.15;46.05;101551.19;5030579;27;99189;-62
2023/06/02 07:09:42;;;;;;;45.03;6.13;;;;;;;19.81;44.65;101551.69;5033147;27;98981;-63
2023/06/02 07:12:09;;;;;;;26.40;6.15;;;;;;;20.28;43.38;101551.38;5033648;27;96981;-63
2023/06/02 07:14:35;;;;;;;31.45;5.30;;;;;;;20.89;42.30;101557.34;5033963;27;97137;-61
2023/06/02 07:17:02;;;;;;;22.23;4.72;;;;;;;21.47;41.10;101559.72;5035987;27;99283;-62
2023/06/02 07:19:28;;;;;;;26.55;6.07;;;;;;;21.70;40.60;101561.69;5035178;27;98849;-62
2023/06/02 07:21:56;;;;;;;18.45;5.82;;;;;;;21.75;40.54;101564.06;5035253;27;96787;-62
2023/06/02 07:24:22;;;;;;;18.48;5.43;;;;;;;21.47;40.85;101562.41;5035269;27;96992;-62
2023/06/02 07:26:49;;;;;;;17.33;5.20;;;;;;;21.70;40.60;101569.78;5034238;27;98973;-63
2023/06/02 07:29:15;;;;;;;19.55;5.32;;;;;;;21.75;40.11;101564.94;5038897;27;98903;-62
2023/06/02 07:31:43;;;;;;;28.65;6.00;;;;;;;21.67;40.62;101569.09;5029750;27;97983;-61
2023/06/02 07:34:09;;;;;;;24.45;5.85;;;;;;;21.70;40.56;101566.22;5037621;27;96787;-63
2023/06/02 07:36:36;;;;;;;21.77;5.75;;;;;;;21.04;42.47;101567.97;5036006;27;99379;-62
2023/06/02 07:39:04;;;;;;;22.75;5.60;;;;;;;21.38;41.86;101571.97;5041707;27;98978;-62
2023/06/02 07:41:30;;;;;;;22.80;5.95;;;;;;;21.53;41.69;101570.06;5042414;27;97212;-63
2023/06/02 07:43:58;;;;;;;23.73;6.47;;;;;;;21.75;41.18;101564.94;5033438;27;97741;-62
2023/06/02 07:46:25;;;;;;;21.38;5.70;;;;;;;21.77;41.44;101578.28;5036266;27;98795;-62
2023/06/02 07:48:51;;;;;;;22.25;5.82;;;;;;;21.87;41.04;101579.34;5030737;27;100427;-63
2023/06/02 07:51:18;;;;;;;18.30;6.07;;;;;;;21.86;41.01;101589.25;5037106;27;96835;-63
2023/06/02 07:53:44;;;;;;;17.05;4.55;;;;;;;21.92;41.15;101581.75;5038656;27;96968;-64
2023/06/02 07:56:12;;;;;;;14.88;4.85;;;;;;;22.00;40.84;101585.63;5045293;27;98945;-63
2023/06/02 07:58:38;;;;;;;16.42;4.80;;;;;;;22.07;40.75;101581.53;5037191;27;99187;-62
2023/06/02 08:01:05;;;;;;;16.48;4.32;;;;;;;22.07;41.07;101586.06;5036189;27;96820;-63
2023/06/02 08:03:32;;;;;;;19.98;4.00;;;;;;;22.04;40.81;101578.22;5024195;27;97567;-63
2023/06/02 08:05:58;;;;;;;19.63;4.88;;;;;;;21.90;40.99;101583.66;5030998;27;98893;-63
2023/06/02 08:08:24;;;;;;;14.35;4.80;;;;;;;21.91;41.28;101590.78;5031055;27;100614;-62
2023/06/02 08:10:51;;;;;;;15.68;4.60;;;;;;;21.91;41.52;101590.78;5039336;27;96891;-63
2023/06/02 08:13:18;;;;;;;21.85;5.32;;;;;;;21.65;41.87;101592.56;5030389;27;97243;-63
2023/06/02 08:15:45;;;;;;;22.60;4.97;;;;;;;21.81;41.40;101587.84;5030269;27;98934;-63
2023/06/02 08:18:15;;;;;;;16.10;3.80;;;;;;;21.81;41.52;101588.72;5035151;27;98957;-62
2023/06/02 08:20:42;;;;;;;13.98;3.80;;;;;;;22.05;41.33;101599.66;5030768;27;97596;-62
2023/06/02 08:23:08;;;;;;;12.35;3.92;;;;;;;22.06;41.00;101592.41;5025568;27;97421;-64
2023/06/02 08:25:38;;;;;;;9.32;3.22;;;;;;;21.91;40.92;101591.66;5032124;27;98976;-65
2023/06/02 08:28:05;;;;;;;9.70;2.92;;;;;;;22.02;40.59;101593.59;5034787;27;98741;-65
2023/06/02 08:30:34;;;;;;;9.90;3.50;;;;;;;22.02;40.67;101593.59;5029476;27;97030;-65
2023/06/02 08:33:02;;;;;;;10.07;3.22;;;;;;;21.93;40.98;101594.19;5029618;27;98547;-65
2023/06/02 08:35:29;;;;;;;12.63;3.72;;;;;;;22.16;40.35;101598.88;5024323;27;99127;-64
2023/06/02 08:37:55;;;;;;;9.45;3.00;;;;;;;22.34;40.09;101597.56;5031241;27;99412;-64
2023/06/02 08:40:25;;;;;;;9.07;2.80;;;;;;;22.17;40.26;101598.78;5030069;27;98243;-64
2023/06/02 08:42:52;;;;;;;14.85;3.10;;;;;;;22.33;39.89;101597.69;5029713;27;96783;-65
2023/06/02 08:45:22;;;;;;;8.35;3.03;;;;;;;22.27;40.07;101596.28;5027904;27;98959;-65
2023/06/02 08:47:53;;;;;;;12.65;2.80;;;;;;;22.40;39.50;101599.81;5031230;27;99443;-65
2023/06/02 08:50:23;;;;;;;14.23;3.72;;;;;;;22.27;40.19;101605.22;5033740;27;96810;-64
2023/06/02 08:52:50;;;;;;;12.13;3.30;;;;;;;22.41;39.82;101601.56;5027608;27;97045;-64
2023/06/02 08:55:17;;;;;;;11.48;3.35;;;;;;;22.66;39.34;101604.19;5040343;27;99702;-65
2023/06/02 08:57:43;;;;;;;10.27;2.75;;;;;;;22.78;39.19;101594.38;5031732;27;98815;-64
2023/06/02 09:00:11;;;;;;;9.65;3.25;;;;;;;23.16;38.34;101605.06;5039215;27;96814;-66
2023/06/02 09:02:37;;;;;;;7.03;2.67;;;;;;;23.39;37.09;101596.09;5035916;27;96834;-64
2023/06/02 09:05:06;;;;;;;5.65;2.20;;;;;;;24.20;34.59;101601.53;5027289;27;99056;-64
2023/06/02 09:07:33;;;;;;;4.10;2.10;;;;;;;24.52;32.78;101598.09;5032781;27;98749;-66
2023/06/02 09:10:00;;;;;;;9.85;3.05;;;;;;;25.14;32.24;101592.94;5033538;27;96910;-64
2023/06/02 09:12:27;;;;;;;7.22;2.03;;;;;;;25.77;31.06;101600.22;5031808;27;96913;-64
2023/06/02 09:15:10;;;;;;;3.30;1.45;;;;;;;25.87;28.25;101594.00;5030649;27;98350;-65
2023/06/02 09:17:37;;;;;;;6.07;2.25;;;;;;;25.79;27.79;101595.53;5029105;27;99168;-65
2023/06/02 09:20:10;;;;;;;5.25;2.50;;;;;;;25.75;27.98;101596.78;5030261;27;96834;-64
2023/06/02 09:22:37;;;;;;;3.03;1.50;;;;;;;26.02;27.42;101598.09;5030864;27;96887;-65
2023/06/02 09:25:21;;;;;;;4.07;1.85;;;;;;;25.59;27.39;101607.22;5027447;27;99511;-65
2023/06/02 09:27:50;;;;;;;3.30;1.90;;;;;;;25.53;26.60;101606.84;5032764;27;99564;-66
2023/06/02 09:30:17;;;;;;;5.93;1.30;;;;;;;25.37;26.19;101605.41;5028371;27;97636;-66
2023/06/02 09:32:52;;;;;;;4.30;1.63;;;;;;;24.98;27.13;101606.91;5025097;27;97082;-65
2023/06/02 09:35:35;;;;;;;2.38;1.58;;;;;;;25.29;24.60;101616.00;5025939;27;99091;-66
2023/06/02 09:38:01;;;;;;;4.75;1.70;;;;;;;25.78;24.17;101617.31;5029335;27;100111;-66
2023/06/02 09:40:29;;;;;;;9.07;1.73;;;;;;;25.70;23.89;101615.25;5026316;27;98365;-65
2023/06/02 09:42:55;;;;;;;7.38;1.45;;;;;;;25.73;23.96;101617.69;5030221;27;97225;-66
2023/06/02 09:45:22;;;;;;;8.82;1.25;;;;;;;25.96;23.91;101623.00;5029609;27;100091;-65
2023/06/02 09:47:49;;;;;;;10.38;1.38;;;;;;;25.62;23.67;101631.28;5025927;27;99229;-66
2023/06/02 09:50:38;;;;;;;3.72;1.20;;;;;;;25.56;23.21;101626.38;5031036;27;97130;-65
2023/06/02 09:53:10;;;;;;;6.07;1.23;;;;;;;25.48;22.95;101622.59;5027706;27;96955;-65
2023/06/02 09:55:38;;;;;;;4.55;1.10;;;;;;;25.41;22.21;101633.06;5027469;27;99324;-65
2023/06/02 09:58:05;;;;;;;4.25;1.10;;;;;;;25.53;22.75;101633.91;5028813;27;98834;-64
2023/06/02 10:00:32;;;;;;;5.65;0.88;;;;;;;24.91;22.36;101638.13;5029226;27;97105;-65
2023/06/02 10:02:59;;;;;;;6.93;1.60;;;;;;;24.96;23.10;101638.59;5031475;27;96877;-65
2023/06/02 10:05:26;;;;;;;6.47;1.30;;;;;;;24.87;23.37;101638.47;5024993;27;98937;-64
2023/06/02 10:08:24;;;;;;;4.10;1.50;;;;;;;25.18;23.16;101645.81;5030506;27;97946;-64
2023/06/02 10:10:59;;;;;;;5.35;1.45;;;;;;;25.22;22.70;101641.00;5026574;27;98069;-64
2023/06/02 10:13:48;;;;;;;2.95;1.23;;;;;;;25.40;22.19;101636.78;5029124;27;97147;-65
2023/06/02 10:16:28;;;;;;;3.42;0.98;;;;;;;25.69;22.10;101648.72;5033725;27;99082;-65
2023/06/02 10:19:15;;;;;;;4.63;1.13;;;;;;;25.94;21.84;101650.19;5024049;27;99959;-64
2023/06/02 10:21:54;;;;;;;3.20;1.15;;;;;;;25.94;22.02;101638.50;5029052;27;97320;-66
2023/06/02 10:24:35;;;;;;;4.57;1.05;;;;;;;26.16;21.81;101638.38;5026405;27;97310;-65
2023/06/02 10:27:23;;;;;;;8.77;1.70;;;;;;;26.50;21.59;101647.16;5029184;27;97930;-65
2023/06/02 10:29:52;;;;;;;3.30;1.13;;;;;;;26.33;21.28;101655.88;5025617;27;98810;-66
2023/06/02 10:32:23;;;;;;;8.75;1.40;;;;;;;26.08;21.48;101655.28;5028010;27;97777;-65
2023/06/02 10:34:51;;;;;;;1.73;0.90;;;;;;;26.09;21.79;101658.84;5030216;27;97286;-65
2023/06/02 10:37:18;;;;;;;4.50;1.58;;;;;;;26.22;21.76;101655.94;5030656;27;98950;-65
2023/06/02 10:39:54;;;;;;;3.17;1.05;;;;;;;26.11;21.63;101652.31;5035232;27;98835;-66
2023/06/02 10:42:22;;;;;;;4.33;1.30;;;;;;;26.27;21.96;101648.28;5033124;27;97172;-65
2023/06/02 10:44:51;;;;;;;3.92;1.50;;;;;;;26.09;22.52;101648.03;5029738;27;97128;-65
2023/06/02 10:47:34;;;;;;;2.78;1.27;;;;;;;26.42;22.34;101642.41;5025635;27;99266;-65
2023/06/02 10:50:02;;;;;;;8.48;1.20;;;;;;;26.88;21.97;101641.00;5034955;27;100995;-65
2023/06/02 10:52:30;;;;;;;3.83;1.88;;;;;;;26.08;22.03;101651.72;5030861;27;96787;-65
2023/06/02 10:55:31;;;;;;;4.72;1.52;;;;;;;25.88;22.82;101649.88;5027808;27;97199;-65
2023/06/02 10:57:59;;;;;;;4.00;1.55;;;;;;;26.30;22.15;101651.63;5030547;27;98068;-66
2023/06/02 11:00:45;;;;;;;7.35;1.38;;;;;;;26.33;22.38;101642.34;5032233;27;98765;-65
2023/06/02 11:03:34;;;;;;;5.07;1.33;;;;;;;26.41;22.68;101645.25;5030567;27;97347;-65
2023/06/02 11:06:24;;;;;;;8.48;1.00;;;;;;;26.27;22.96;101643.75;5030516;27;96773;-66
2023/06/02 11:08:51;;;;;;;5.03;1.20;;;;;;;25.94;23.73;101641.22;5046191;27;100652;-64
2023/06/02 11:11:51;;;;;;;5.50;1.33;;;;;;;26.25;23.31;101643.03;5034285;27;97825;-65
2023/06/02 11:14:18;;;;;;;5.70;0.98;;;;;;;26.12;23.48;101636.94;5026803;27;96777;-64
2023/06/02 11:16:44;;;;;;;4.47;1.30;;;;;;;26.38;22.96;101651.81;5030853;27;97453;-65
2023/06/02 11:19:11;;;;;;;2.42;1.00;;;;;;;26.49;22.00;101645.44;5027589;27;100569;-65
2023/06/02 11:21:38;;;;;;;5.68;1.35;;;;;;;26.37;22.47;101644.66;5027195;27;101094;-65
2023/06/02 11:24:05;;;;;;;3.28;0.90;;;;;;;26.18;22.63;101647.25;5028896;27;97808;-65